Time;durP1;ratioP1;P1;durP2;ratioP2;P2;SDS_P1;SDS_P2;PMS_P1;PMS_P2;Temp;Humidity;BMP_temperature;BMP_pressure;BME280_temperature;BME280_humidity;BME280_pressure;Samples;Min_cycle;Max_cycle;Signal;HPM_P1;HPM_P2
2022/09/19 00:01:42;;;;;;;0.82;0.82;;;13.90;73.60;;;;;;5089726;28;20024;-83
2022/09/19 00:04:12;;;;;;;1.08;0.95;;;13.90;73.70;;;;;;5088963;28;20115;-84
2022/09/19 00:06:40;;;;;;;0.90;0.90;;;13.90;73.70;;;;;;5089501;28;20032;-83
2022/09/19 00:09:09;;;;;;;0.90;0.90;;;13.80;73.70;;;;;;5089383;28;20020;-83
2022/09/19 00:11:39;;;;;;;0.80;0.80;;;13.90;73.90;;;;;;5088357;28;20036;-83
2022/09/19 00:14:05;;;;;;;1.17;1.10;;;13.80;73.90;;;;;;5083675;28;20024;-84
2022/09/19 00:16:34;;;;;;;0.90;0.90;;;13.80;73.90;;;;;;5088583;28;20051;-84
2022/09/19 00:19:02;;;;;;;0.82;0.82;;;13.90;74.00;;;;;;5089552;28;20032;-84
2022/09/19 00:21:38;;;;;;;1.08;1.08;;;13.90;74.00;;;;;;5089941;28;20544;-83
2022/09/19 00:26:55;;;;;;;0.80;0.80;;;14.00;74.20;;;;;;5102040;28;20042;-84
2022/09/19 00:29:21;;;;;;;0.70;0.70;;;14.00;74.10;;;;;;5088219;28;20012;-84
2022/09/19 00:31:47;;;;;;;0.63;0.63;;;14.10;74.10;;;;;;5080454;28;20392;-84
2022/09/19 00:34:15;;;;;;;0.60;0.60;;;14.10;74.00;;;;;;5082992;28;20073;-84
2022/09/19 00:36:42;;;;;;;0.80;0.80;;;14.20;74.00;;;;;;5088662;28;20024;-84
2022/09/19 00:39:09;;;;;;;0.88;0.88;;;14.20;74.00;;;;;;5089546;28;20031;-83
2022/09/19 00:41:36;;;;;;;0.90;0.90;;;14.30;74.00;;;;;;5088199;28;20032;-84
2022/09/19 00:44:04;;;;;;;0.60;0.60;;;14.30;73.90;;;;;;5088599;28;20059;-84
2022/09/19 00:46:33;;;;;;;1.00;0.90;;;14.30;73.90;;;;;;5084531;28;20079;-83
2022/09/19 00:49:05;;;;;;;0.65;0.65;;;14.30;73.80;;;;;;5087971;28;20499;-83
2022/09/19 00:51:50;;;;;;;0.75;0.75;;;14.40;73.90;;;;;;5087133;28;20566;-84
2022/09/19 00:54:31;;;;;;;0.70;0.70;;;14.40;73.90;;;;;;5104643;28;20490;-84
2022/09/19 00:57:00;;;;;;;0.60;0.60;;;14.40;73.90;;;;;;5088058;28;20032;-83
2022/09/19 00:59:29;;;;;;;0.80;0.80;;;14.40;73.90;;;;;;5088406;28;20096;-84
2022/09/19 01:01:56;;;;;;;0.90;0.88;;;14.50;73.90;;;;;;5088537;28;20019;-83
2022/09/19 01:04:35;;;;;;;0.80;0.80;;;14.50;73.90;;;;;;5086964;28;20029;-84
2022/09/19 01:07:36;;;;;;;0.85;0.85;;;14.50;73.90;;;;;;5087552;28;20081;-84
2022/09/19 01:10:07;;;;;;;0.63;0.63;;;14.50;73.90;;;;;;5067435;28;20032;-84
2022/09/19 01:12:46;;;;;;;0.57;0.57;;;14.50;73.90;;;;;;5073262;28;20029;-83
2022/09/19 01:15:19;;;;;;;0.80;0.80;;;14.60;73.90;;;;;;5074472;28;20056;-84
2022/09/19 01:17:48;;;;;;;1.08;1.00;;;14.60;73.90;;;;;;5061885;28;20017;-84
2022/09/19 01:20:14;;;;;;;0.82;0.82;;;14.70;73.80;;;;;;5072925;28;20025;-84
2022/09/19 01:22:54;;;;;;;0.90;0.90;;;14.70;73.70;;;;;;5070172;28;20505;-84
2022/09/19 01:25:46;;;;;;;0.80;0.80;;;14.70;73.70;;;;;;5092231;28;20036;-84
2022/09/19 01:28:25;;;;;;;0.70;0.70;;;14.70;73.60;;;;;;5082205;28;20021;-84
2022/09/19 01:31:17;;;;;;;0.88;0.88;;;14.70;73.70;;;;;;5062576;28;20029;-84
2022/09/19 01:34:01;;;;;;;0.80;0.80;;;14.70;73.60;;;;;;5073682;28;20471;-84
2022/09/19 01:36:38;;;;;;;0.88;0.88;;;14.80;73.60;;;;;;5074761;28;20015;-84
2022/09/19 01:39:07;;;;;;;0.70;0.70;;;14.80;73.50;;;;;;5059903;28;20388;-83
2022/09/19 01:41:34;;;;;;;0.90;0.90;;;14.80;73.50;;;;;;5070878;28;20383;-83
2022/09/19 01:44:04;;;;;;;1.02;1.00;;;14.80;73.50;;;;;;5074605;28;20078;-84
2022/09/19 01:46:45;;;;;;;0.95;0.95;;;14.70;73.50;;;;;;5073910;28;20025;-84
2022/09/19 01:49:37;;;;;;;1.30;1.08;;;14.80;73.50;;;;;;5073716;28;20021;-83
2022/09/19 01:52:34;;;;;;;1.00;1.00;;;14.70;73.50;;;;;;5062037;28;20074;-83
2022/09/19 01:55:06;;;;;;;0.90;0.90;;;14.70;73.40;;;;;;5073226;28;20028;-84
2022/09/19 01:57:58;;;;;;;0.90;0.90;;;14.80;73.50;;;;;;5068162;28;20083;-83
2022/09/19 02:00:25;;;;;;;0.93;0.88;;;14.80;73.40;;;;;;5073683;28;20021;-83
2022/09/19 02:03:07;;;;;;;1.00;1.00;;;14.80;73.50;;;;;;5073638;28;20062;-84
2022/09/19 02:05:42;;;;;;;;;;;14.80;73.50;;;;;;5073972;28;20074;-84
2022/09/19 02:08:14;;;;;;;0.90;0.90;;;14.80;73.50;;;;;;5073539;28;19999;-84
2022/09/19 02:10:46;;;;;;;0.70;0.70;;;14.90;73.50;;;;;;5069775;28;20044;-84
2022/09/19 02:13:13;;;;;;;0.90;0.90;;;14.90;73.50;;;;;;5063480;28;20024;-84
2022/09/19 02:15:46;;;;;;;1.10;1.00;;;14.90;73.30;;;;;;5073043;28;20071;-83
2022/09/19 02:18:26;;;;;;;1.08;1.08;;;15.00;73.40;;;;;;5073261;28;20514;-84
2022/09/19 02:20:59;;;;;;;1.30;1.20;;;14.90;73.10;;;;;;5071990;28;20092;-84
2022/09/19 02:23:28;;;;;;;1.10;1.10;;;15.00;73.10;;;;;;5072880;28;20016;-84
2022/09/19 02:25:55;;;;;;;1.40;1.30;;;15.00;73.10;;;;;;5073479;28;20056;-84
2022/09/19 02:28:38;;;;;;;1.35;1.25;;;15.00;73.00;;;;;;5071958;28;20028;-83
2022/09/19 02:31:05;;;;;;;0.85;0.85;;;15.10;72.80;;;;;;5073162;28;20028;-84
2022/09/19 02:33:35;;;;;;;1.33;1.30;;;15.10;72.80;;;;;;5072631;28;20229;-84
2022/09/19 02:36:07;;;;;;;1.27;1.23;;;15.00;72.70;;;;;;5073111;28;20036;-84
2022/09/19 02:38:52;;;;;;;1.05;1.00;;;15.10;72.80;;;;;;5072950;28;20024;-83
2022/09/19 02:41:36;;;;;;;1.27;1.17;;;15.10;72.70;;;;;;5066224;28;20021;-84
2022/09/19 02:44:13;;;;;;;1.30;1.30;;;15.10;72.70;;;;;;5062930;28;20032;-83
2022/09/19 02:47:04;;;;;;;1.45;1.35;;;15.10;72.60;;;;;;5077938;28;20027;-83
2022/09/19 02:49:38;;;;;;;1.10;1.10;;;15.10;72.60;;;;;;5072792;28;20035;-83
2022/09/19 02:52:12;;;;;;;1.25;1.17;;;15.10;72.50;;;;;;5072844;28;20059;-84
2022/09/19 02:54:42;;;;;;;1.55;1.45;;;15.20;72.60;;;;;;5072106;28;20031;-83
2022/09/19 02:57:13;;;;;;;1.25;1.17;;;15.20;72.60;;;;;;5073788;28;20060;-84
2022/09/19 02:59:43;;;;;;;1.58;1.48;;;15.20;72.50;;;;;;5071365;28;20119;-83
2022/09/19 03:02:16;;;;;;;1.42;1.33;;;15.20;72.40;;;;;;5072070;28;20165;-83
2022/09/19 03:04:46;;;;;;;1.05;1.05;;;15.20;73.00;;;;;;5072406;28;20460;-83
2022/09/19 03:07:30;;;;;;;1.27;1.17;;;15.20;72.30;;;;;;5072496;28;20021;-84
2022/09/19 03:10:13;;;;;;;1.55;1.45;;;15.20;72.30;;;;;;5072838;28;20032;-83
2022/09/19 03:12:50;;;;;;;2.60;1.20;;;15.20;72.30;;;;;;5067155;28;20112;-83
2022/09/19 03:15:20;;;;;;;1.45;1.35;;;15.20;72.20;;;;;;5073786;28;20071;-84
2022/09/19 03:17:49;;;;;;;1.67;1.58;;;15.20;72.10;;;;;;5071363;28;20502;-84
2022/09/19 03:20:16;;;;;;;1.42;1.40;;;15.30;72.10;;;;;;5071432;28;20438;-84
2022/09/19 03:22:44;;;;;;;1.95;1.38;;;15.20;71.90;;;;;;5072625;28;20360;-84
2022/09/19 03:25:11;;;;;;;1.58;1.48;;;15.20;71.90;;;;;;5074419;28;20550;-84
2022/09/19 03:27:37;;;;;;;1.48;1.38;;;15.30;72.00;;;;;;5074073;28;20024;-83
2022/09/19 03:30:08;;;;;;;1.35;1.25;;;15.20;72.00;;;;;;5072521;28;20063;-84
2022/09/19 03:32:36;;;;;;;1.45;1.35;;;15.20;72.00;;;;;;5072796;28;20658;-84
2022/09/19 03:35:04;;;;;;;1.45;1.35;;;15.20;72.00;;;;;;5072228;28;20170;-84
2022/09/19 03:37:32;;;;;;;1.20;1.17;;;15.30;72.00;;;;;;5072610;28;20032;-84
2022/09/19 03:39:58;;;;;;;0.95;0.95;;;15.30;72.00;;;;;;5071932;28;20031;-84
2022/09/19 03:42:27;;;;;;;1.70;1.60;;;15.30;72.00;;;;;;5066869;28;20111;-84
2022/09/19 03:44:54;;;;;;;1.60;1.50;;;15.30;71.90;;;;;;5069260;28;20038;-84
2022/09/19 03:47:21;;;;;;;1.60;1.50;;;15.30;71.90;;;;;;5080149;28;20032;-84
2022/09/19 03:49:49;;;;;;;1.30;1.30;;;15.30;71.90;;;;;;5070808;28;20037;-84
2022/09/19 03:52:16;;;;;;;1.60;1.50;;;15.30;71.90;;;;;;5072520;28;20059;-84
2022/09/19 03:54:43;;;;;;;1.80;1.70;;;15.30;71.80;;;;;;5071310;28;20427;-84
2022/09/19 03:57:09;;;;;;;1.52;1.48;;;15.30;71.90;;;;;;5064651;28;20055;-84
2022/09/19 03:59:41;;;;;;;1.17;1.17;;;15.30;71.90;;;;;;5071843;28;20008;-84
2022/09/19 04:02:10;;;;;;;1.00;1.00;;;15.30;71.90;;;;;;5071676;28;20020;-84
2022/09/19 04:04:36;;;;;;;1.70;1.60;;;15.30;71.90;;;;;;5072011;28;20017;-84
2022/09/19 04:07:03;;;;;;;1.70;1.60;;;15.30;71.90;;;;;;5072031;28;20024;-84
2022/09/19 04:09:29;;;;;;;1.80;1.70;;;15.30;71.90;;;;;;5070725;28;20024;-84
2022/09/19 04:11:56;;;;;;;1.70;1.60;;;15.30;71.80;;;;;;5085238;28;20027;-84
2022/09/19 04:14:23;;;;;;;2.10;1.90;;;15.40;71.80;;;;;;5071528;28;20116;-84
2022/09/19 04:16:49;;;;;;;1.75;1.65;;;15.40;71.60;;;;;;5071912;28;20535;-84
2022/09/19 04:19:15;;;;;;;1.63;1.50;;;15.30;71.60;;;;;;5071343;28;20506;-84
2022/09/19 04:21:41;;;;;;;1.98;1.60;;;15.30;71.70;;;;;;5072214;28;20048;-83
2022/09/19 04:24:12;;;;;;;1.42;1.33;;;15.30;71.70;;;;;;5068667;28;20062;-84
2022/09/19 04:26:38;;;;;;;2.15;1.67;;;15.20;71.80;;;;;;5074199;28;20016;-84
2022/09/19 04:29:06;;;;;;;1.92;1.83;;;15.20;71.80;;;;;;5071852;28;20037;-84
2022/09/19 04:31:38;;;;;;;1.70;1.60;;;15.20;72.60;;;;;;5074778;28;20016;-84
2022/09/19 04:34:05;;;;;;;1.38;1.33;;;15.20;72.00;;;;;;5069422;28;20050;-83
2022/09/19 04:36:31;;;;;;;1.60;1.50;;;15.20;72.10;;;;;;5072280;28;20423;-84
2022/09/19 04:39:02;;;;;;;1.70;1.60;;;15.20;72.30;;;;;;5072056;28;20025;-84
2022/09/19 04:41:31;;;;;;;1.80;1.70;;;15.20;72.30;;;;;;5069508;28;20554;-84
2022/09/19 04:43:57;;;;;;;1.58;1.48;;;15.30;72.40;;;;;;5071570;28;20455;-83
2022/09/19 04:46:41;;;;;;;1.77;1.67;;;15.30;72.30;;;;;;5070474;28;20357;-84
2022/09/19 04:49:15;;;;;;;1.60;1.50;;;15.40;72.30;;;;;;5064605;28;20071;-84
2022/09/19 04:51:41;;;;;;;1.58;1.48;;;15.50;72.10;;;;;;5067622;28;20479;-84
2022/09/19 04:54:06;;;;;;;1.67;1.58;;;15.50;71.90;;;;;;5075506;28;20031;-84
2022/09/19 04:56:33;;;;;;;1.60;1.50;;;15.60;71.70;;;;;;5074480;28;20017;-84
2022/09/19 04:59:02;;;;;;;1.70;1.60;;;15.70;71.60;;;;;;5073863;28;20044;-84
2022/09/19 05:01:30;;;;;;;1.75;1.65;;;15.70;71.50;;;;;;5068699;28;20028;-84
2022/09/19 05:03:56;;;;;;;1.60;1.50;;;15.70;71.40;;;;;;5063732;28;20020;-84
2022/09/19 05:06:22;;;;;;;2.00;1.50;;;15.70;71.30;;;;;;5073518;28;20475;-85
2022/09/19 05:08:50;;;;;;;1.70;1.60;;;15.80;71.30;;;;;;5079454;28;20029;-83
2022/09/19 05:11:18;;;;;;;1.48;1.38;;;15.80;71.30;;;;;;5071866;28;20024;-84
2022/09/19 05:13:44;;;;;;;2.58;1.80;;;15.90;71.40;;;;;;5073215;28;20472;-83
2022/09/19 05:16:13;;;;;;;1.83;1.73;;;15.90;71.30;;;;;;5073706;28;20091;-83
2022/09/19 05:18:39;;;;;;;2.03;1.88;;;16.00;71.10;;;;;;5070897;28;20021;-83
2022/09/19 05:21:08;;;;;;;1.60;1.50;;;16.00;71.00;;;;;;5071509;28;20116;-83
2022/09/19 05:23:36;;;;;;;1.80;1.70;;;16.10;70.80;;;;;;5067445;28;20077;-83
2022/09/19 05:26:04;;;;;;;1.90;1.75;;;16.10;70.80;;;;;;5070945;28;20032;-83
2022/09/19 05:28:30;;;;;;;1.75;1.65;;;16.10;70.70;;;;;;5086968;28;20036;-83
2022/09/19 05:30:56;;;;;;;1.90;1.80;;;16.10;70.60;;;;;;5065437;28;20024;-83
2022/09/19 05:33:26;;;;;;;2.00;1.90;;;16.10;70.50;;;;;;5074570;28;20016;-83
2022/09/19 05:35:55;;;;;;;2.35;1.65;;;16.10;70.50;;;;;;5065042;28;20021;-84
2022/09/19 05:38:23;;;;;;;2.03;1.80;;;16.10;70.50;;;;;;5065369;28;20032;-84
2022/09/19 05:40:56;;;;;;;1.85;1.75;;;16.10;70.50;;;;;;5069296;28;20027;-84
2022/09/19 05:43:22;;;;;;;1.60;1.50;;;16.10;70.40;;;;;;5084893;28;20034;-84
2022/09/19 05:45:50;;;;;;;1.52;1.42;;;16.10;70.50;;;;;;5085672;28;20021;-84
2022/09/19 05:48:16;;;;;;;1.63;1.52;;;16.10;70.50;;;;;;5072775;28;20028;-84
2022/09/19 05:50:46;;;;;;;1.73;1.63;;;16.10;70.50;;;;;;5063028;28;20399;-83
2022/09/19 05:56:04;;;;;;;1.83;1.73;;;16.10;71.10;;;;;;5064635;28;20120;-83
2022/09/19 05:58:31;;;;;;;1.60;1.50;;;16.10;70.40;;;;;;5064408;28;20076;-83
2022/09/19 06:00:57;;;;;;;2.03;1.92;;;16.00;70.30;;;;;;5077579;28;20032;-83
2022/09/19 06:03:23;;;;;;;2.22;2.03;;;16.00;70.40;;;;;;5056590;28;20029;-84
2022/09/19 06:05:55;;;;;;;1.85;1.75;;;16.00;71.20;;;;;;5068019;28;20505;-84
2022/09/19 06:08:22;;;;;;;1.70;1.60;;;16.00;70.60;;;;;;5040438;28;20697;-83
2022/09/19 06:10:49;;;;;;;1.60;1.50;;;16.00;70.80;;;;;;5059760;28;20387;-83
2022/09/19 06:13:20;;;;;;;2.28;2.08;;;16.10;70.80;;;;;;5066454;28;20042;-83
2022/09/19 06:15:46;;;;;;;2.00;1.80;;;16.20;70.80;;;;;;5063753;28;20063;-84
2022/09/19 06:18:12;;;;;;;2.05;1.88;;;16.30;70.70;;;;;;5063667;28;20033;-84
2022/09/19 06:20:39;;;;;;;1.83;1.73;;;16.30;70.50;;;;;;5055177;28;20039;-83
2022/09/19 06:23:06;;;;;;;1.50;1.40;;;16.40;70.40;;;;;;5057807;28;20021;-84
2022/09/19 06:25:34;;;;;;;3.17;1.70;;;16.50;70.30;;;;;;5081212;28;20032;-83
2022/09/19 06:28:02;;;;;;;1.73;1.48;;;16.60;70.20;;;;;;5058736;28;20041;-84
2022/09/19 06:30:28;;;;;;;1.65;1.55;;;16.60;70.10;;;;;;5066303;28;20702;-84
2022/09/19 06:32:54;;;;;;;1.67;1.58;;;16.70;70.10;;;;;;5066110;28;20054;-83
2022/09/19 06:35:22;;;;;;;2.67;1.85;;;16.80;70.00;;;;;;5063314;28;20404;-83
2022/09/19 06:37:49;;;;;;;1.80;1.70;;;16.80;69.80;;;;;;5055743;28;20043;-83
2022/09/19 06:40:21;;;;;;;1.90;1.80;;;16.90;69.70;;;;;;5063127;28;20029;-83
2022/09/19 06:42:46;;;;;;;1.60;1.50;;;16.90;69.50;;;;;;5056568;28;20017;-83
2022/09/19 06:45:12;;;;;;;1.80;1.70;;;16.90;69.40;;;;;;5055965;28;20471;-84
2022/09/19 06:47:37;;;;;;;1.85;1.75;;;16.90;69.40;;;;;;5059269;28;20032;-84
2022/09/19 06:50:08;;;;;;;1.83;1.73;;;16.90;69.30;;;;;;5060781;28;20120;-83
2022/09/19 06:52:34;;;;;;;2.00;1.77;;;16.90;69.20;;;;;;5071713;28;20407;-84
2022/09/19 06:55:00;;;;;;;1.80;1.70;;;16.90;69.30;;;;;;5058175;28;20041;-84
2022/09/19 06:57:25;;;;;;;2.10;1.85;;;16.80;69.10;;;;;;5065763;28;20044;-85
2022/09/19 06:59:51;;;;;;;1.45;1.35;;;16.80;69.20;;;;;;5056440;28;20127;-83
2022/09/19 07:02:21;;;;;;;1.60;1.50;;;16.80;69.20;;;;;;5060183;28;20093;-83
2022/09/19 07:04:51;;;;;;;1.42;1.33;;;16.80;69.20;;;;;;5069450;28;20029;-84
2022/09/19 07:07:17;;;;;;;2.50;1.50;;;16.90;69.20;;;;;;5056122;28;20043;-83
2022/09/19 07:09:42;;;;;;;1.50;1.40;;;16.90;69.80;;;;;;5077044;28;20040;-83
2022/09/19 07:12:11;;;;;;;1.50;1.40;;;16.90;69.00;;;;;;5071165;28;20036;-83
2022/09/19 07:15:05;;;;;;;1.50;1.40;;;17.00;69.00;;;;;;5061978;28;20043;-86
2022/09/19 07:17:47;;;;;;;1.50;1.40;;;17.00;68.80;;;;;;5075062;28;20020;-88
2022/09/19 07:20:14;;;;;;;1.63;1.52;;;17.00;68.60;;;;;;5065897;28;20081;-86
2022/09/19 07:22:40;;;;;;;1.38;1.27;;;17.00;68.70;;;;;;5046594;22;20058;-85
2022/09/19 07:25:10;;;;;;;1.58;1.48;;;17.10;68.70;;;;;;4990896;28;20044;-85
2022/09/19 07:27:36;;;;;;;1.58;1.45;;;17.10;68.60;;;;;;4993995;28;20145;-85
2022/09/19 07:30:28;;;;;;;1.60;1.50;;;17.10;68.60;;;;;;5020930;28;20076;-94
2022/09/19 07:33:00;;;;;;;1.30;1.30;;;17.10;68.50;;;;;;5000159;28;20030;-88
2022/09/19 07:35:56;;;;;;;1.50;1.40;;;17.10;68.30;;;;;;5017917;28;20070;-90
2022/09/19 07:38:27;;;;;;;1.20;1.20;;;17.10;68.40;;;;;;5035161;28;20109;-88
2022/09/19 07:40:54;;;;;;;1.27;1.27;;;17.20;68.40;;;;;;5025633;28;20168;-89
2022/09/19 07:44:10;;;;;;;1.38;1.30;;;17.30;68.50;;;;;;5011419;28;20041;-88
2022/09/19 07:50:26;;;;;;;;;;;;;;;;;;;;;
2022/09/19 07:53:50;;;;;;;1.40;1.27;;;17.50;68.10;;;;;;5006607;28;20022;-89
2022/09/19 07:56:23;;;;;;;1.20;1.20;;;17.60;67.80;;;;;;4948833;28;20026;-92
2022/09/19 07:58:49;;;;;;;1.92;1.50;;;17.60;67.60;;;;;;5001320;28;20113;-88
2022/09/19 08:01:15;;;;;;;1.42;1.23;;;17.70;67.60;;;;;;5003712;28;20053;-88
2022/09/19 08:07:54;;;;;;;1.73;1.38;;;17.70;67.10;;;;;;5004488;28;20064;-91
2022/09/19 08:19:40;;;;;;;1.42;1.33;;;17.70;66.70;;;;;;5017776;28;20549;-86
2022/09/19 08:22:36;;;;;;;1.58;1.42;;;17.70;66.80;;;;;;5018907;28;20021;-87
2022/09/19 08:25:01;;;;;;;1.98;1.77;;;17.60;66.60;;;;;;4994608;28;20030;-87
2022/09/19 08:28:10;;;;;;;1.50;1.40;;;17.60;66.70;;;;;;5028214;28;20064;-87
2022/09/19 08:31:15;;;;;;;1.77;1.67;;;17.60;66.40;;;;;;5013827;28;20484;-86
2022/09/19 08:33:47;;;;;;;1.58;1.48;;;17.60;65.90;;;;;;5007975;28;20041;-89
2022/09/19 08:36:16;;;;;;;2.40;1.50;;;17.60;66.20;;;;;;5018569;28;20057;-89
2022/09/19 08:49:39;;;;;;;1.40;1.30;;;17.80;65.90;;;;;;4958778;28;20157;-86
2022/09/19 08:59:42;;;;;;;1.23;1.20;;;17.80;64.90;;;;;;4888905;29;21021;-87
2022/09/19 09:02:41;;;;;;;1.60;1.50;;;17.80;65.10;;;;;;4884482;29;20051;-89
2022/09/19 09:05:41;;;;;;;1.38;1.27;;;17.70;65.50;;;;;;4934817;29;20028;-90
2022/09/19 09:15:59;;;;;;;1.20;1.10;;;17.80;65.40;;;;;;4968814;28;20097;-87
2022/09/19 09:18:42;;;;;;;1.10;1.10;;;17.80;64.80;;;;;;5018843;28;20844;-87
2022/09/19 09:21:13;;;;;;;1.25;1.15;;;17.90;64.90;;;;;;5023515;28;20643;-87
2022/09/19 09:23:52;;;;;;;1.40;1.30;;;17.90;65.10;;;;;;5018023;28;20038;-85
2022/09/19 09:33:07;;;;;;;1.40;1.30;;;18.00;64.40;;;;;;5014514;28;20107;-88
2022/09/19 09:35:35;;;;;;;1.30;1.20;;;18.10;64.60;;;;;;5021277;28;20432;-86
2022/09/19 09:38:16;;;;;;;1.00;1.00;;;18.10;64.80;;;;;;5019290;28;20037;-84
2022/09/19 09:44:23;;;;;;;1.08;1.00;;;18.10;64.60;;;;;;5014031;28;20092;-88
2022/09/19 09:47:01;;;;;;;1.08;1.08;;;18.20;64.30;;;;;;4985775;28;20544;-87
2022/09/19 09:49:30;;;;;;;1.00;1.00;;;18.30;64.40;;;;;;5016471;28;20036;-88
2022/09/19 09:52:23;;;;;;;1.42;1.33;;;18.30;64.80;;;;;;5021541;28;20038;-86
2022/09/19 09:58:37;;;;;;;1.02;1.02;;;18.30;64.10;;;;;;5023191;28;20103;-83
2022/09/19 10:04:40;;;;;;;1.48;1.10;;;18.30;64.20;;;;;;5018046;28;20083;-84
2022/09/19 10:07:24;;;;;;;1.20;1.10;;;18.30;64.00;;;;;;5024136;28;20132;-85
2022/09/19 10:09:57;;;;;;;1.30;1.13;;;18.30;64.10;;;;;;5045492;28;20033;-86
2022/09/19 10:12:28;;;;;;;1.25;1.15;;;18.30;63.80;;;;;;5041492;28;20014;-86
2022/09/19 10:15:00;;;;;;;1.35;1.25;;;18.40;63.70;;;;;;5026141;28;20256;-85
2022/09/19 10:17:33;;;;;;;0.90;0.90;;;18.40;63.70;;;;;;5031101;28;20047;-86
2022/09/19 10:20:15;;;;;;;1.30;1.20;;;18.40;63.70;;;;;;5027221;28;20176;-88
2022/09/19 10:22:42;;;;;;;0.70;0.70;;;18.40;63.60;;;;;;5029573;28;20022;-86
2022/09/19 10:25:10;;;;;;;1.10;1.10;;;18.40;63.40;;;;;;5031691;28;20028;-84
2022/09/19 10:27:41;;;;;;;1.25;1.10;;;18.50;63.60;;;;;;5024197;28;20038;-83
2022/09/19 10:30:27;;;;;;;1.23;1.13;;;18.60;63.30;;;;;;5024503;28;20033;-84
2022/09/19 10:32:54;;;;;;;1.50;1.40;;;18.60;63.60;;;;;;5021820;28;20033;-83
2022/09/19 10:35:26;;;;;;;1.30;1.20;;;18.70;63.50;;;;;;5025492;28;20491;-85
2022/09/19 10:38:10;;;;;;;1.50;1.30;;;18.70;63.10;;;;;;5024352;28;20030;-86
2022/09/19 10:40:58;;;;;;;1.35;1.30;;;18.70;62.90;;;;;;5029178;28;20064;-87
2022/09/19 10:43:32;;;;;;;1.40;1.30;;;18.80;63.00;;;;;;5018522;28;20545;-86
2022/09/19 10:46:05;;;;;;;1.08;1.08;;;18.80;62.70;;;;;;5030145;28;20037;-86
2022/09/19 10:48:33;;;;;;;1.08;1.08;;;18.80;62.60;;;;;;5023427;28;20133;-86
2022/09/19 10:51:07;;;;;;;1.05;1.05;;;18.90;62.60;;;;;;5026702;28;20208;-86
2022/09/19 10:53:33;;;;;;;1.13;1.13;;;18.90;62.50;;;;;;5016591;28;20035;-85
2022/09/19 10:56:22;;;;;;;1.67;1.38;;;18.90;62.30;;;;;;5033769;28;20697;-85
2022/09/19 10:58:49;;;;;;;1.20;1.10;;;19.00;62.30;;;;;;5020713;28;20087;-85
2022/09/19 11:02:03;;;;;;;1.75;1.00;;;19.00;62.20;;;;;;5017523;28;20056;-87
2022/09/19 11:04:35;;;;;;;1.42;1.33;;;19.00;62.00;;;;;;5014367;28;20021;-88
2022/09/19 11:07:14;;;;;;;1.30;1.13;;;19.00;62.00;;;;;;5026537;28;20327;-86
2022/09/19 11:09:42;;;;;;;0.88;0.88;;;19.10;62.00;;;;;;5032879;28;22327;-88
2022/09/19 11:12:17;;;;;;;0.85;0.85;;;19.10;61.90;;;;;;5030168;28;20063;-91
2022/09/19 11:14:59;;;;;;;1.20;1.10;;;19.10;61.80;;;;;;5028574;28;20654;-88
2022/09/19 11:17:37;;;;;;;1.33;1.23;;;19.10;61.70;;;;;;5051185;28;20061;-89
2022/09/19 11:20:34;;;;;;;1.10;1.00;;;19.10;61.50;;;;;;5039899;28;20049;-87
2022/09/19 11:23:42;;;;;;;1.10;1.10;;;19.10;61.40;;;;;;5025111;28;21413;-87
2022/09/19 11:26:26;;;;;;;1.00;1.00;;;19.20;61.40;;;;;;5011666;28;20338;-86
2022/09/19 11:29:37;;;;;;;1.15;1.08;;;19.20;62.10;;;;;;5039997;28;20116;-88
2022/09/19 11:32:44;;;;;;;1.65;1.10;;;19.20;61.40;;;;;;5039725;28;20025;-90
2022/09/19 11:36:01;;;;;;;;;;;;;;;;;;;;;
2022/09/19 11:38:48;;;;;;;1.45;1.17;;;19.20;61.10;;;;;;5026700;28;20048;-88
2022/09/19 11:44:58;;;;;;;1.25;1.15;;;19.20;61.10;;;;;;5024476;28;20038;-87
2022/09/19 11:47:46;;;;;;;0.63;0.63;;;19.20;60.80;;;;;;5035312;28;20381;-87
2022/09/19 11:50:49;;;;;;;0.70;0.70;;;19.10;60.80;;;;;;5024315;28;20031;-88
2022/09/19 11:53:28;;;;;;;0.75;0.75;;;19.20;60.90;;;;;;5028675;28;20084;-91
2022/09/19 11:56:36;;;;;;;0.95;0.80;;;19.20;60.70;;;;;;5018899;28;20044;-86
2022/09/19 11:59:26;;;;;;;1.38;1.23;;;19.20;60.70;;;;;;5016872;28;20114;-85
2022/09/19 12:02:51;;;;;;;;;;;;;;;;;;;;;
2022/09/19 12:05:57;;;;;;;1.13;1.13;;;19.20;60.50;;;;;;5011864;28;20046;-86
2022/09/19 12:09:17;;;;;;;0.88;0.88;;;19.20;60.40;;;;;;5018071;28;20033;-84
2022/09/19 12:11:50;;;;;;;1.00;1.00;;;19.20;60.60;;;;;;4947038;28;20041;-87
2022/09/19 12:14:29;;;;;;;0.75;0.75;;;19.20;60.50;;;;;;5017499;28;20106;-85
2022/09/19 12:17:15;;;;;;;0.95;0.95;;;19.20;60.10;;;;;;5019191;28;21350;-88
2022/09/19 12:19:45;;;;;;;0.77;0.77;;;19.20;60.00;;;;;;5021833;28;20046;-87
2022/09/19 12:22:26;;;;;;;1.15;1.13;;;19.20;60.10;;;;;;5021154;28;20564;-85
2022/09/19 12:25:21;;;;;;;0.90;0.90;;;19.10;60.10;;;;;;5012511;28;20143;-86
2022/09/19 12:28:35;;;;;;;1.27;1.17;;;19.10;59.80;;;;;;5013586;28;20389;-88
2022/09/19 12:31:06;;;;;;;0.80;0.80;;;19.20;59.80;;;;;;5027459;28;20104;-87
2022/09/19 12:33:34;;;;;;;;;;;19.20;60.00;;;;;;5022364;28;20064;-87
2022/09/19 12:36:59;;;;;;;0.80;0.80;;;19.20;59.40;;;;;;5019108;28;19920;-84
2022/09/19 12:39:47;;;;;;;0.88;0.88;;;19.10;59.50;;;;;;4947643;28;20051;-87
2022/09/19 12:42:49;;;;;;;1.38;1.30;;;19.20;59.80;;;;;;4937568;28;20118;-83
2022/09/19 12:45:21;;;;;;;1.02;0.93;;;19.10;59.70;;;;;;5010895;28;20041;-84
2022/09/19 12:48:00;;;;;;;1.05;0.90;;;19.10;59.70;;;;;;5020128;28;20088;-83
2022/09/19 12:50:34;;;;;;;1.13;1.02;;;19.10;59.60;;;;;;5015968;28;20040;-84
2022/09/19 12:53:21;;;;;;;0.98;0.98;;;19.20;59.70;;;;;;5016198;28;20033;-83
2022/09/19 12:56:21;;;;;;;1.23;1.13;;;19.20;59.70;;;;;;5013218;28;20108;-84
2022/09/19 12:59:00;;;;;;;2.30;1.15;;;19.30;59.30;;;;;;5002485;28;20140;-83
2022/09/19 13:01:33;;;;;;;1.20;1.10;;;19.30;59.70;;;;;;5010398;28;20037;-83
2022/09/19 13:04:13;;;;;;;1.20;1.10;;;19.30;59.50;;;;;;5016696;28;20044;-83
2022/09/19 13:06:42;;;;;;;1.15;1.13;;;19.30;59.40;;;;;;5017875;28;20489;-83
2022/09/19 13:09:21;;;;;;;1.30;1.20;;;19.30;59.30;;;;;;5016725;28;20452;-83
2022/09/19 13:11:59;;;;;;;1.40;1.20;;;19.30;59.30;;;;;;5019798;28;20086;-83
2022/09/19 13:14:50;;;;;;;1.20;1.08;;;19.30;59.30;;;;;;5015546;28;20064;-81
2022/09/19 13:25:35;;;;;;;0.50;0.50;;;19.10;59.40;;;;;;5022641;28;20935;-82
2022/09/19 13:28:22;;;;;;;0.95;0.95;;;19.00;59.60;;;;;;5019895;28;20029;-83
2022/09/19 13:31:03;;;;;;;1.17;1.08;;;18.90;59.40;;;;;;5012494;28;20040;-82
2022/09/19 13:33:38;;;;;;;1.13;1.02;;;18.90;59.60;;;;;;5017956;28;20473;-82
2022/09/19 13:36:09;;;;;;;1.00;1.00;;;18.90;59.30;;;;;;5020176;28;20029;-82
2022/09/19 13:38:38;;;;;;;;;;;18.90;59.20;;;;;;5019646;28;20135;-81
2022/09/19 13:41:16;;;;;;;0.70;0.70;;;18.80;59.10;;;;;;5031109;28;19913;-83
2022/09/19 13:44:10;;;;;;;1.17;1.08;;;18.80;59.50;;;;;;5020171;28;20125;-82
2022/09/19 13:46:39;;;;;;;1.02;0.90;;;18.80;59.40;;;;;;5007480;28;20025;-82
2022/09/19 13:49:31;;;;;;;0.68;0.68;;;18.80;59.60;;;;;;5025400;28;20033;-83
2022/09/19 13:52:11;;;;;;;1.58;1.08;;;18.80;59.60;;;;;;5011392;28;20052;-83
2022/09/19 13:55:02;;;;;;;0.80;0.80;;;18.80;59.40;;;;;;5016483;28;20132;-83
2022/09/19 13:57:30;;;;;;;1.00;1.00;;;18.80;59.30;;;;;;5012988;28;20033;-82
2022/09/19 13:59:58;;;;;;;1.20;1.10;;;18.80;59.50;;;;;;5017187;28;20117;-82
2022/09/19 14:02:42;;;;;;;0.85;0.85;;;18.80;59.50;;;;;;5010216;28;22177;-82
2022/09/19 14:05:22;;;;;;;1.25;1.23;;;18.80;59.50;;;;;;5010971;28;20036;-82
2022/09/19 14:07:58;;;;;;;0.75;0.70;;;18.80;59.50;;;;;;5012122;28;20037;-82
2022/09/19 14:10:29;;;;;;;0.90;0.90;;;18.80;59.50;;;;;;5014018;28;20149;-81
2022/09/19 14:12:57;;;;;;;0.70;0.70;;;18.80;59.60;;;;;;5015872;28;20029;-83
2022/09/19 14:15:41;;;;;;;0.90;0.90;;;18.70;59.40;;;;;;5010453;28;20123;-81
2022/09/19 14:18:10;;;;;;;0.88;0.70;;;18.70;59.20;;;;;;5013319;28;20039;-81
2022/09/19 14:20:48;;;;;;;0.98;0.90;;;18.70;59.20;;;;;;5012558;28;20032;-82
2022/09/19 14:23:15;;;;;;;1.10;1.10;;;18.60;59.30;;;;;;5013368;28;20025;-81
2022/09/19 14:25:54;;;;;;;0.70;0.70;;;18.60;59.40;;;;;;5012600;28;20061;-81
2022/09/19 14:28:38;;;;;;;1.02;1.02;;;18.50;59.20;;;;;;5010918;28;20115;-81
2022/09/19 14:31:42;;;;;;;1.38;1.02;;;18.50;59.10;;;;;;5013523;28;20029;-81
2022/09/19 14:34:26;;;;;;;1.40;1.30;;;18.40;59.00;;;;;;5026627;28;20087;-81
2022/09/19 14:37:12;;;;;;;0.85;0.85;;;18.40;59.00;;;;;;5014705;28;20422;-82
2022/09/19 14:40:12;;;;;;;1.23;1.08;;;18.40;58.90;;;;;;5025464;28;20033;-81
2022/09/19 14:43:04;;;;;;;1.17;1.10;;;18.40;59.20;;;;;;5000879;28;20084;-80
2022/09/19 14:45:38;;;;;;;1.52;1.42;;;18.30;59.30;;;;;;5012224;28;20029;-81
2022/09/19 14:48:32;;;;;;;1.20;1.10;;;18.30;59.20;;;;;;5013258;28;20485;-82
2022/09/19 14:51:14;;;;;;;1.48;1.38;;;18.30;59.10;;;;;;5011414;28;20025;-82
2022/09/19 14:53:41;;;;;;;1.02;0.93;;;18.30;59.00;;;;;;5016050;28;20148;-81